sensor_id;sensor_type;location;lat;lon;timestamp;temperature;humidity
65146;DHT22;51730;56.950;24.126;2023-01-15T00:02:06;6.00;99.90
65146;DHT22;51730;56.950;24.126;2023-01-15T00:04:32;5.90;99.90
65146;DHT22;51730;56.950;24.126;2023-01-15T00:06:59;5.90;99.90
65146;DHT22;51730;56.950;24.126;2023-01-15T00:09:26;5.90;99.90
65146;DHT22;51730;56.950;24.126;2023-01-15T00:11:53;5.80;99.90
65146;DHT22;51730;56.950;24.126;2023-01-15T00:14:20;5.90;99.90
65146;DHT22;51730;56.950;24.126;2023-01-15T00:16:51;5.80;99.90
65146;DHT22;51730;56.950;24.126;2023-01-15T00:19:18;5.80;99.90
65146;DHT22;51730;56.950;24.126;2023-01-15T00:21:45;5.80;99.90
65146;DHT22;51730;56.950;24.126;2023-01-15T00:24:12;5.70;99.90
65146;DHT22;51730;56.950;24.126;2023-01-15T00:26:57;5.70;99.90
65146;DHT22;51730;56.950;24.126;2023-01-15T00:29:43;5.70;99.90
65146;DHT22;51730;56.950;24.126;2023-01-15T00:32:10;5.70;99.90
65146;DHT22;51730;56.950;24.126;2023-01-15T00:34:37;5.80;99.90
65146;DHT22;51730;56.950;24.126;2023-01-15T00:37:04;5.80;99.90
65146;DHT22;51730;56.950;24.126;2023-01-15T00:39:30;5.80;99.90
65146;DHT22;51730;56.950;24.126;2023-01-15T00:41:57;5.80;99.90
65146;DHT22;51730;56.950;24.126;2023-01-15T00:44:24;5.80;99.90
65146;DHT22;51730;56.950;24.126;2023-01-15T00:46:51;5.70;99.90
65146;DHT22;51730;56.950;24.126;2023-01-15T00:49:18;5.80;99.90
65146;DHT22;51730;56.950;24.126;2023-01-15T00:51:45;5.70;99.90
65146;DHT22;51730;56.950;24.126;2023-01-15T00:54:13;5.70;99.90
65146;DHT22;51730;56.950;24.126;2023-01-15T00:56:39;5.70;99.90
65146;DHT22;51730;56.950;24.126;2023-01-15T00:59:06;5.70;99.90
65146;DHT22;51730;56.950;24.126;2023-01-15T01:01:33;5.80;99.90
65146;DHT22;51730;56.950;24.126;2023-01-15T01:04:01;5.80;99.90
65146;DHT22;51730;56.950;24.126;2023-01-15T01:06:27;5.80;99.90
65146;DHT22;51730;56.950;24.126;2023-01-15T01:08:55;5.80;99.90
65146;DHT22;51730;56.950;24.126;2023-01-15T01:11:24;5.80;99.90
65146;DHT22;51730;56.950;24.126;2023-01-15T01:13:55;5.80;99.90
65146;DHT22;51730;56.950;24.126;2023-01-15T01:16:28;5.70;99.90
65146;DHT22;51730;56.950;24.126;2023-01-15T01:18:58;5.70;99.90
65146;DHT22;51730;56.950;24.126;2023-01-15T01:21:25;5.70;99.90
65146;DHT22;51730;56.950;24.126;2023-01-15T01:23:52;5.70;99.90
65146;DHT22;51730;56.950;24.126;2023-01-15T01:26:20;5.70;99.90
65146;DHT22;51730;56.950;24.126;2023-01-15T01:28:51;5.70;99.90
65146;DHT22;51730;56.950;24.126;2023-01-15T01:31:20;5.80;99.90
65146;DHT22;51730;56.950;24.126;2023-01-15T01:33:49;5.80;99.90
65146;DHT22;51730;56.950;24.126;2023-01-15T01:36:17;5.80;99.90
65146;DHT22;51730;56.950;24.126;2023-01-15T01:38:47;5.70;99.90
65146;DHT22;51730;56.950;24.126;2023-01-15T01:41:17;5.70;99.90
65146;DHT22;51730;56.950;24.126;2023-01-15T01:43:59;5.70;99.90
65146;DHT22;51730;56.950;24.126;2023-01-15T01:46:28;5.80;99.90
65146;DHT22;51730;56.950;24.126;2023-01-15T01:49:08;5.80;99.90
65146;DHT22;51730;56.950;24.126;2023-01-15T01:51:43;5.80;99.90
65146;DHT22;51730;56.950;24.126;2023-01-15T01:54:13;5.70;99.90
65146;DHT22;51730;56.950;24.126;2023-01-15T01:56:43;5.70;99.90
65146;DHT22;51730;56.950;24.126;2023-01-15T01:59:10;5.80;99.90
65146;DHT22;51730;56.950;24.126;2023-01-15T02:01:37;5.80;99.90
65146;DHT22;51730;56.950;24.126;2023-01-15T02:04:07;5.80;99.90
65146;DHT22;51730;56.950;24.126;2023-01-15T02:06:36;5.80;99.90
65146;DHT22;51730;56.950;24.126;2023-01-15T02:09:04;5.80;99.90
65146;DHT22;51730;56.950;24.126;2023-01-15T02:11:32;5.70;99.90
65146;DHT22;51730;56.950;24.126;2023-01-15T02:14:15;5.80;99.90
65146;DHT22;51730;56.950;24.126;2023-01-15T02:19:35;5.80;99.90
65146;DHT22;51730;56.950;24.126;2023-01-15T02:27:27;5.80;99.90
65146;DHT22;51730;56.950;24.126;2023-01-15T02:30:20;5.80;99.90
65146;DHT22;51730;56.950;24.126;2023-01-15T02:33:04;5.80;99.90
65146;DHT22;51730;56.950;24.126;2023-01-15T02:35:49;5.90;99.90
65146;DHT22;51730;56.950;24.126;2023-01-15T02:38:20;5.80;99.90
65146;DHT22;51730;56.950;24.126;2023-01-15T02:40:50;5.90;99.90
65146;DHT22;51730;56.950;24.126;2023-01-15T02:43:20;5.90;99.90
65146;DHT22;51730;56.950;24.126;2023-01-15T02:45:50;5.90;99.90
65146;DHT22;51730;56.950;24.126;2023-01-15T02:48:20;5.90;99.90
65146;DHT22;51730;56.950;24.126;2023-01-15T02:50:54;5.90;99.90
65146;DHT22;51730;56.950;24.126;2023-01-15T02:53:25;5.90;99.90
65146;DHT22;51730;56.950;24.126;2023-01-15T02:55:56;5.90;99.90
65146;DHT22;51730;56.950;24.126;2023-01-15T02:58:29;6.00;99.90
65146;DHT22;51730;56.950;24.126;2023-01-15T03:01:00;6.10;99.90
65146;DHT22;51730;56.950;24.126;2023-01-15T03:06:13;6.00;99.90
65146;DHT22;51730;56.950;24.126;2023-01-15T03:08:41;5.90;99.90
65146;DHT22;51730;56.950;24.126;2023-01-15T03:11:11;5.90;99.90
65146;DHT22;51730;56.950;24.126;2023-01-15T03:16:38;5.90;99.90
65146;DHT22;51730;56.950;24.126;2023-01-15T03:19:30;5.90;99.90
65146;DHT22;51730;56.950;24.126;2023-01-15T03:24:43;6.00;99.90
65146;DHT22;51730;56.950;24.126;2023-01-15T03:27:13;5.90;99.90
65146;DHT22;51730;56.950;24.126;2023-01-15T03:29:47;5.90;99.90
65146;DHT22;51730;56.950;24.126;2023-01-15T03:32:15;6.00;99.90
65146;DHT22;51730;56.950;24.126;2023-01-15T03:34:49;5.90;99.90
65146;DHT22;51730;56.950;24.126;2023-01-15T03:37:18;5.90;99.90
65146;DHT22;51730;56.950;24.126;2023-01-15T03:39:46;5.90;99.90
65146;DHT22;51730;56.950;24.126;2023-01-15T03:42:24;5.90;99.90
65146;DHT22;51730;56.950;24.126;2023-01-15T03:45:45;5.90;99.90
65146;DHT22;51730;56.950;24.126;2023-01-15T03:48:27;6.00;99.90
65146;DHT22;51730;56.950;24.126;2023-01-15T03:51:08;6.00;99.90
65146;DHT22;51730;56.950;24.126;2023-01-15T03:53:43;6.00;99.90
65146;DHT22;51730;56.950;24.126;2023-01-15T03:59:10;6.10;99.90
65146;DHT22;51730;56.950;24.126;2023-01-15T04:01:40;6.10;99.90
65146;DHT22;51730;56.950;24.126;2023-01-15T04:04:09;6.10;99.90
65146;DHT22;51730;56.950;24.126;2023-01-15T04:06:37;6.10;99.90
65146;DHT22;51730;56.950;24.126;2023-01-15T04:09:08;6.10;99.90
65146;DHT22;51730;56.950;24.126;2023-01-15T04:11:36;6.10;99.90
65146;DHT22;51730;56.950;24.126;2023-01-15T04:14:03;6.10;99.90
65146;DHT22;51730;56.950;24.126;2023-01-15T04:16:31;6.00;99.90
65146;DHT22;51730;56.950;24.126;2023-01-15T04:18:58;6.10;99.90
65146;DHT22;51730;56.950;24.126;2023-01-15T04:21:25;6.10;99.90
65146;DHT22;51730;56.950;24.126;2023-01-15T04:23:52;6.10;99.90
65146;DHT22;51730;56.950;24.126;2023-01-15T04:26:19;6.10;99.90
65146;DHT22;51730;56.950;24.126;2023-01-15T04:28:46;6.10;99.90
65146;DHT22;51730;56.950;24.126;2023-01-15T04:31:13;6.10;99.90
65146;DHT22;51730;56.950;24.126;2023-01-15T04:33:40;6.10;99.90
65146;DHT22;51730;56.950;24.126;2023-01-15T04:36:07;6.00;99.90
65146;DHT22;51730;56.950;24.126;2023-01-15T04:38:37;6.00;99.90
65146;DHT22;51730;56.950;24.126;2023-01-15T04:41:04;5.90;99.90
65146;DHT22;51730;56.950;24.126;2023-01-15T04:43:50;5.90;99.90
65146;DHT22;51730;56.950;24.126;2023-01-15T04:46:53;5.80;99.90
65146;DHT22;51730;56.950;24.126;2023-01-15T04:49:20;5.90;99.90
65146;DHT22;51730;56.950;24.126;2023-01-15T04:51:47;5.80;99.90
65146;DHT22;51730;56.950;24.126;2023-01-15T04:54:15;5.80;99.90
65146;DHT22;51730;56.950;24.126;2023-01-15T04:56:47;5.80;99.90
65146;DHT22;51730;56.950;24.126;2023-01-15T04:59:15;5.80;99.90
65146;DHT22;51730;56.950;24.126;2023-01-15T05:01:42;5.70;99.90
65146;DHT22;51730;56.950;24.126;2023-01-15T05:04:28;5.70;99.90
65146;DHT22;51730;56.950;24.126;2023-01-15T05:06:55;5.70;99.90
65146;DHT22;51730;56.950;24.126;2023-01-15T05:09:22;5.70;99.90
65146;DHT22;51730;56.950;24.126;2023-01-15T05:11:49;5.70;99.90
65146;DHT22;51730;56.950;24.126;2023-01-15T05:14:15;5.60;99.90
65146;DHT22;51730;56.950;24.126;2023-01-15T05:16:42;5.60;99.90
65146;DHT22;51730;56.950;24.126;2023-01-15T05:19:10;5.60;99.90
65146;DHT22;51730;56.950;24.126;2023-01-15T05:21:40;5.50;99.90
65146;DHT22;51730;56.950;24.126;2023-01-15T05:24:09;5.50;99.90
65146;DHT22;51730;56.950;24.126;2023-01-15T05:26:36;5.50;99.90
65146;DHT22;51730;56.950;24.126;2023-01-15T05:29:04;5.50;99.90
65146;DHT22;51730;56.950;24.126;2023-01-15T05:31:31;5.50;99.90
65146;DHT22;51730;56.950;24.126;2023-01-15T05:33:59;5.50;99.90
65146;DHT22;51730;56.950;24.126;2023-01-15T05:36:28;5.60;99.90
65146;DHT22;51730;56.950;24.126;2023-01-15T05:38:57;5.60;99.90
65146;DHT22;51730;56.950;24.126;2023-01-15T05:41:27;5.50;99.90
65146;DHT22;51730;56.950;24.126;2023-01-15T05:44:14;5.60;99.90
65146;DHT22;51730;56.950;24.126;2023-01-15T05:46:42;5.60;99.90
65146;DHT22;51730;56.950;24.126;2023-01-15T05:49:12;5.50;99.90
65146;DHT22;51730;56.950;24.126;2023-01-15T05:51:40;5.50;99.90
65146;DHT22;51730;56.950;24.126;2023-01-15T05:54:10;5.50;99.90
65146;DHT22;51730;56.950;24.126;2023-01-15T05:56:38;5.50;99.90
65146;DHT22;51730;56.950;24.126;2023-01-15T05:59:06;5.50;99.90
65146;DHT22;51730;56.950;24.126;2023-01-15T06:01:34;5.50;99.90
65146;DHT22;51730;56.950;24.126;2023-01-15T06:04:02;5.60;99.90
65146;DHT22;51730;56.950;24.126;2023-01-15T06:06:31;5.50;99.90
65146;DHT22;51730;56.950;24.126;2023-01-15T06:08:58;5.50;99.90
65146;DHT22;51730;56.950;24.126;2023-01-15T06:11:25;5.50;99.90
65146;DHT22;51730;56.950;24.126;2023-01-15T06:13:52;5.50;99.90
65146;DHT22;51730;56.950;24.126;2023-01-15T06:16:19;5.50;99.90
65146;DHT22;51730;56.950;24.126;2023-01-15T06:18:46;5.60;99.90
65146;DHT22;51730;56.950;24.126;2023-01-15T06:21:14;5.60;99.90
65146;DHT22;51730;56.950;24.126;2023-01-15T06:23:41;5.40;99.90
65146;DHT22;51730;56.950;24.126;2023-01-15T06:26:14;5.50;99.90
65146;DHT22;51730;56.950;24.126;2023-01-15T06:28:43;5.50;99.90
65146;DHT22;51730;56.950;24.126;2023-01-15T06:31:12;5.50;99.90
65146;DHT22;51730;56.950;24.126;2023-01-15T06:33:40;5.50;99.90
65146;DHT22;51730;56.950;24.126;2023-01-15T06:36:13;5.50;99.90
65146;DHT22;51730;56.950;24.126;2023-01-15T06:38:41;5.50;99.90
65146;DHT22;51730;56.950;24.126;2023-01-15T06:41:12;5.50;99.90
65146;DHT22;51730;56.950;24.126;2023-01-15T06:44:09;5.40;99.90
65146;DHT22;51730;56.950;24.126;2023-01-15T06:46:55;5.40;99.90
65146;DHT22;51730;56.950;24.126;2023-01-15T06:49:41;5.40;99.90
65146;DHT22;51730;56.950;24.126;2023-01-15T06:52:08;5.40;99.90
65146;DHT22;51730;56.950;24.126;2023-01-15T06:54:35;5.40;99.90
65146;DHT22;51730;56.950;24.126;2023-01-15T06:57:02;5.40;99.90
65146;DHT22;51730;56.950;24.126;2023-01-15T06:59:30;5.40;99.90
65146;DHT22;51730;56.950;24.126;2023-01-15T07:01:57;5.30;99.90
65146;DHT22;51730;56.950;24.126;2023-01-15T07:04:24;5.30;99.90
65146;DHT22;51730;56.950;24.126;2023-01-15T07:06:51;5.40;99.90
65146;DHT22;51730;56.950;24.126;2023-01-15T07:09:17;5.30;99.90
65146;DHT22;51730;56.950;24.126;2023-01-15T07:11:44;5.30;99.90
65146;DHT22;51730;56.950;24.126;2023-01-15T07:14:19;5.20;99.90
65146;DHT22;51730;56.950;24.126;2023-01-15T07:16:47;5.20;99.90
65146;DHT22;51730;56.950;24.126;2023-01-15T07:19:14;5.30;99.90
65146;DHT22;51730;56.950;24.126;2023-01-15T07:21:42;5.20;99.90
65146;DHT22;51730;56.950;24.126;2023-01-15T07:24:10;5.20;99.90
65146;DHT22;51730;56.950;24.126;2023-01-15T07:26:37;5.20;99.90
65146;DHT22;51730;56.950;24.126;2023-01-15T07:29:05;5.20;99.90
65146;DHT22;51730;56.950;24.126;2023-01-15T07:31:32;5.20;99.90
65146;DHT22;51730;56.950;24.126;2023-01-15T07:33:59;5.10;99.90
65146;DHT22;51730;56.950;24.126;2023-01-15T07:36:26;5.20;99.90
65146;DHT22;51730;56.950;24.126;2023-01-15T07:38:53;5.20;99.90
65146;DHT22;51730;56.950;24.126;2023-01-15T07:41:20;5.20;99.90
65146;DHT22;51730;56.950;24.126;2023-01-15T07:44:09;5.10;99.90
65146;DHT22;51730;56.950;24.126;2023-01-15T07:46:54;5.20;99.90
65146;DHT22;51730;56.950;24.126;2023-01-15T07:49:43;5.20;99.90
65146;DHT22;51730;56.950;24.126;2023-01-15T07:52:21;5.20;99.90
65146;DHT22;51730;56.950;24.126;2023-01-15T07:54:49;5.20;99.90
65146;DHT22;51730;56.950;24.126;2023-01-15T07:57:21;5.20;99.90
65146;DHT22;51730;56.950;24.126;2023-01-15T07:59:48;5.30;99.90
65146;DHT22;51730;56.950;24.126;2023-01-15T08:02:16;5.20;99.90
65146;DHT22;51730;56.950;24.126;2023-01-15T08:04:43;5.30;99.90
65146;DHT22;51730;56.950;24.126;2023-01-15T08:07:10;5.30;99.90
65146;DHT22;51730;56.950;24.126;2023-01-15T08:09:38;5.30;99.90
65146;DHT22;51730;56.950;24.126;2023-01-15T08:12:06;5.30;99.90
65146;DHT22;51730;56.950;24.126;2023-01-15T08:14:51;5.30;99.90
65146;DHT22;51730;56.950;24.126;2023-01-15T08:17:37;5.30;99.90
65146;DHT22;51730;56.950;24.126;2023-01-15T08:20:07;5.20;99.90
65146;DHT22;51730;56.950;24.126;2023-01-15T08:22:35;5.30;99.90
65146;DHT22;51730;56.950;24.126;2023-01-15T08:25:05;5.30;99.90
65146;DHT22;51730;56.950;24.126;2023-01-15T08:27:32;5.30;99.90
65146;DHT22;51730;56.950;24.126;2023-01-15T08:29:59;5.30;99.90
65146;DHT22;51730;56.950;24.126;2023-01-15T08:32:26;5.30;99.90
65146;DHT22;51730;56.950;24.126;2023-01-15T08:34:52;5.30;99.90
65146;DHT22;51730;56.950;24.126;2023-01-15T08:37:19;5.30;99.90
65146;DHT22;51730;56.950;24.126;2023-01-15T08:39:46;5.30;99.90
65146;DHT22;51730;56.950;24.126;2023-01-15T08:42:13;5.30;99.90
65146;DHT22;51730;56.950;24.126;2023-01-15T08:44:40;5.30;99.90
65146;DHT22;51730;56.950;24.126;2023-01-15T08:47:07;5.30;99.90
65146;DHT22;51730;56.950;24.126;2023-01-15T08:49:34;5.30;99.90
65146;DHT22;51730;56.950;24.126;2023-01-15T08:52:00;5.20;99.90
65146;DHT22;51730;56.950;24.126;2023-01-15T08:54:27;5.20;99.90
65146;DHT22;51730;56.950;24.126;2023-01-15T08:56:55;5.30;99.90
65146;DHT22;51730;56.950;24.126;2023-01-15T08:59:22;5.30;99.90
65146;DHT22;51730;56.950;24.126;2023-01-15T09:01:49;5.20;99.90
65146;DHT22;51730;56.950;24.126;2023-01-15T09:04:19;5.20;99.90
65146;DHT22;51730;56.950;24.126;2023-01-15T09:06:47;5.20;99.90
65146;DHT22;51730;56.950;24.126;2023-01-15T09:09:14;5.20;99.90
65146;DHT22;51730;56.950;24.126;2023-01-15T09:11:43;5.20;99.90
65146;DHT22;51730;56.950;24.126;2023-01-15T09:14:13;5.20;99.90
65146;DHT22;51730;56.950;24.126;2023-01-15T09:17:00;5.20;99.90
65146;DHT22;51730;56.950;24.126;2023-01-15T09:19:27;5.20;99.90
65146;DHT22;51730;56.950;24.126;2023-01-15T09:21:54;5.10;99.90
65146;DHT22;51730;56.950;24.126;2023-01-15T09:24:21;5.20;99.90
65146;DHT22;51730;56.950;24.126;2023-01-15T09:26:48;5.20;99.90
65146;DHT22;51730;56.950;24.126;2023-01-15T09:29:18;5.20;99.90
65146;DHT22;51730;56.950;24.126;2023-01-15T09:31:45;5.10;99.90
65146;DHT22;51730;56.950;24.126;2023-01-15T09:34:12;5.10;99.90
65146;DHT22;51730;56.950;24.126;2023-01-15T09:36:39;5.10;99.90
65146;DHT22;51730;56.950;24.126;2023-01-15T09:39:07;5.10;99.90
65146;DHT22;51730;56.950;24.126;2023-01-15T09:41:55;5.10;99.90
65146;DHT22;51730;56.950;24.126;2023-01-15T09:44:47;5.00;99.90
65146;DHT22;51730;56.950;24.126;2023-01-15T09:47:30;5.00;99.90
65146;DHT22;51730;56.950;24.126;2023-01-15T09:53:39;5.00;99.90
65146;DHT22;51730;56.950;24.126;2023-01-15T09:55:48;5.00;99.90
65146;DHT22;51730;56.950;24.126;2023-01-15T09:58:18;4.90;99.90
65146;DHT22;51730;56.950;24.126;2023-01-15T10:00:48;5.00;99.90
65146;DHT22;51730;56.950;24.126;2023-01-15T10:03:26;4.90;99.90
65146;DHT22;51730;56.950;24.126;2023-01-15T10:08:37;4.80;99.90
65146;DHT22;51730;56.950;24.126;2023-01-15T10:13:59;4.90;99.90
65146;DHT22;51730;56.950;24.126;2023-01-15T10:16:28;4.90;99.90
65146;DHT22;51730;56.950;24.126;2023-01-15T10:18:57;4.90;99.90
65146;DHT22;51730;56.950;24.126;2023-01-15T10:24:39;4.90;99.90
65146;DHT22;51730;56.950;24.126;2023-01-15T10:27:19;4.90;99.90
65146;DHT22;51730;56.950;24.126;2023-01-15T10:29:48;4.90;99.90
65146;DHT22;51730;56.950;24.126;2023-01-15T10:32:43;5.00;99.90
65146;DHT22;51730;56.950;24.126;2023-01-15T10:41:11;4.80;99.90
65146;DHT22;51730;56.950;24.126;2023-01-15T10:44:01;4.80;99.90
65146;DHT22;51730;56.950;24.126;2023-01-15T10:46:35;4.80;99.90
65146;DHT22;51730;56.950;24.126;2023-01-15T10:49:13;4.70;99.90
65146;DHT22;51730;56.950;24.126;2023-01-15T10:51:55;4.70;99.90
65146;DHT22;51730;56.950;24.126;2023-01-15T10:54:34;4.70;99.90
65146;DHT22;51730;56.950;24.126;2023-01-15T10:58:07;4.80;99.90
65146;DHT22;51730;56.950;24.126;2023-01-15T11:00:27;4.70;99.90
65146;DHT22;51730;56.950;24.126;2023-01-15T11:03:01;4.70;99.90
65146;DHT22;51730;56.950;24.126;2023-01-15T11:05:33;4.70;99.90
65146;DHT22;51730;56.950;24.126;2023-01-15T11:08:04;4.60;99.90
65146;DHT22;51730;56.950;24.126;2023-01-15T11:10:53;4.70;99.90
65146;DHT22;51730;56.950;24.126;2023-01-15T11:13:23;4.70;99.90
65146;DHT22;51730;56.950;24.126;2023-01-15T11:16:17;4.60;99.90
65146;DHT22;51730;56.950;24.126;2023-01-15T11:19:22;4.60;99.90
65146;DHT22;51730;56.950;24.126;2023-01-15T11:22:16;4.60;99.90
65146;DHT22;51730;56.950;24.126;2023-01-15T11:27:21;4.50;99.90
65146;DHT22;51730;56.950;24.126;2023-01-15T11:29:52;4.50;99.90
65146;DHT22;51730;56.950;24.126;2023-01-15T11:34:54;4.50;99.90
65146;DHT22;51730;56.950;24.126;2023-01-15T11:37:21;4.50;99.90
65146;DHT22;51730;56.950;24.126;2023-01-15T11:39:55;4.40;99.90
65146;DHT22;51730;56.950;24.126;2023-01-15T11:42:22;4.40;99.90
65146;DHT22;51730;56.950;24.126;2023-01-15T11:45:16;4.40;99.90
65146;DHT22;51730;56.950;24.126;2023-01-15T11:48:14;4.40;99.90
65146;DHT22;51730;56.950;24.126;2023-01-15T11:51:07;4.50;99.90
65146;DHT22;51730;56.950;24.126;2023-01-15T11:53:48;4.40;99.90
65146;DHT22;51730;56.950;24.126;2023-01-15T11:56:27;4.40;99.90
65146;DHT22;51730;56.950;24.126;2023-01-15T11:58:57;4.40;99.90
65146;DHT22;51730;56.950;24.126;2023-01-15T12:01:31;4.40;99.90
65146;DHT22;51730;56.950;24.126;2023-01-15T12:04:06;4.30;99.90
65146;DHT22;51730;56.950;24.126;2023-01-15T12:06:35;4.40;99.90
65146;DHT22;51730;56.950;24.126;2023-01-15T12:09:15;4.40;99.90
65146;DHT22;51730;56.950;24.126;2023-01-15T12:15:28;4.30;99.90
65146;DHT22;51730;56.950;24.126;2023-01-15T12:18:22;4.20;99.90
65146;DHT22;51730;56.950;24.126;2023-01-15T12:28:53;4.20;99.90
65146;DHT22;51730;56.950;24.126;2023-01-15T12:31:33;4.10;99.90
65146;DHT22;51730;56.950;24.126;2023-01-15T12:37:02;4.20;99.90
65146;DHT22;51730;56.950;24.126;2023-01-15T12:42:10;4.20;99.90
65146;DHT22;51730;56.950;24.126;2023-01-15T12:45:07;4.20;99.90
65146;DHT22;51730;56.950;24.126;2023-01-15T12:50:48;4.10;99.90
65146;DHT22;51730;56.950;24.126;2023-01-15T12:56:30;4.10;99.90
65146;DHT22;51730;56.950;24.126;2023-01-15T12:59:36;4.10;99.90
65146;DHT22;51730;56.950;24.126;2023-01-15T13:02:32;4.10;99.90
65146;DHT22;51730;56.950;24.126;2023-01-15T13:05:29;4.10;99.90
65146;DHT22;51730;56.950;24.126;2023-01-15T13:08:18;4.10;99.90
65146;DHT22;51730;56.950;24.126;2023-01-15T13:10:49;4.10;99.90
65146;DHT22;51730;56.950;24.126;2023-01-15T13:13:49;4.10;99.90
65146;DHT22;51730;56.950;24.126;2023-01-15T13:22:29;4.10;99.90
65146;DHT22;51730;56.950;24.126;2023-01-15T13:33:25;4.10;99.90
65146;DHT22;51730;56.950;24.126;2023-01-15T13:36:02;4.10;99.90
65146;DHT22;51730;56.950;24.126;2023-01-15T13:38:37;4.10;99.90
65146;DHT22;51730;56.950;24.126;2023-01-15T13:41:06;4.10;99.90
65146;DHT22;51730;56.950;24.126;2023-01-15T13:43:39;4.10;99.90
65146;DHT22;51730;56.950;24.126;2023-01-15T13:46:12;4.10;99.90
65146;DHT22;51730;56.950;24.126;2023-01-15T13:48:49;4.10;99.90
65146;DHT22;51730;56.950;24.126;2023-01-15T13:51:31;4.10;99.90
65146;DHT22;51730;56.950;24.126;2023-01-15T13:53:59;4.10;99.90
65146;DHT22;51730;56.950;24.126;2023-01-15T13:56:31;4.10;99.90
65146;DHT22;51730;56.950;24.126;2023-01-15T13:59:02;4.10;99.90
65146;DHT22;51730;56.950;24.126;2023-01-15T14:06:47;4.10;99.90
65146;DHT22;51730;56.950;24.126;2023-01-15T14:17:42;4.10;99.90
65146;DHT22;51730;56.950;24.126;2023-01-15T14:21:08;4.10;99.90
65146;DHT22;51730;56.950;24.126;2023-01-15T14:23:56;4.10;99.90
65146;DHT22;51730;56.950;24.126;2023-01-15T14:34:33;4.10;99.90
65146;DHT22;51730;56.950;24.126;2023-01-15T14:37:04;4.10;99.90
65146;DHT22;51730;56.950;24.126;2023-01-15T14:39:38;4.10;99.90
65146;DHT22;51730;56.950;24.126;2023-01-15T14:47:46;4.20;99.90
65146;DHT22;51730;56.950;24.126;2023-01-15T14:55:48;4.20;99.90
65146;DHT22;51730;56.950;24.126;2023-01-15T15:00:52;4.20;99.90
65146;DHT22;51730;56.950;24.126;2023-01-15T15:03:36;4.20;99.90
65146;DHT22;51730;56.950;24.126;2023-01-15T15:06:05;4.20;99.90
65146;DHT22;51730;56.950;24.126;2023-01-15T15:08:39;4.20;99.90
65146;DHT22;51730;56.950;24.126;2023-01-15T15:11:15;4.20;99.90
65146;DHT22;51730;56.950;24.126;2023-01-15T15:14:05;4.20;99.90
65146;DHT22;51730;56.950;24.126;2023-01-15T15:16:33;4.20;99.90
65146;DHT22;51730;56.950;24.126;2023-01-15T15:19:24;4.30;99.90
65146;DHT22;51730;56.950;24.126;2023-01-15T15:21:55;4.30;99.90
65146;DHT22;51730;56.950;24.126;2023-01-15T15:24:28;4.30;99.90
65146;DHT22;51730;56.950;24.126;2023-01-15T15:26:55;4.30;99.90
65146;DHT22;51730;56.950;24.126;2023-01-15T15:29:22;4.30;99.90
65146;DHT22;51730;56.950;24.126;2023-01-15T15:31:52;4.40;99.90
65146;DHT22;51730;56.950;24.126;2023-01-15T15:34:48;4.30;99.90
65146;DHT22;51730;56.950;24.126;2023-01-15T15:37:19;4.30;99.90
65146;DHT22;51730;56.950;24.126;2023-01-15T15:40:03;4.40;99.90
65146;DHT22;51730;56.950;24.126;2023-01-15T15:42:40;4.30;99.90
65146;DHT22;51730;56.950;24.126;2023-01-15T15:45:29;4.30;99.90
65146;DHT22;51730;56.950;24.126;2023-01-15T15:48:32;4.40;99.90
65146;DHT22;51730;56.950;24.126;2023-01-15T15:51:37;4.40;99.90
65146;DHT22;51730;56.950;24.126;2023-01-15T15:56:40;4.40;99.90
65146;DHT22;51730;56.950;24.126;2023-01-15T15:59:36;4.40;99.90
65146;DHT22;51730;56.950;24.126;2023-01-15T16:02:36;4.50;99.90
65146;DHT22;51730;56.950;24.126;2023-01-15T16:07:49;4.60;99.90
65146;DHT22;51730;56.950;24.126;2023-01-15T16:12:52;4.70;99.90
65146;DHT22;51730;56.950;24.126;2023-01-15T16:15:40;4.60;99.90
65146;DHT22;51730;56.950;24.126;2023-01-15T16:18:35;4.60;99.90
65146;DHT22;51730;56.950;24.126;2023-01-15T16:21:15;4.70;99.90
65146;DHT22;51730;56.950;24.126;2023-01-15T16:23:42;4.60;99.90
65146;DHT22;51730;56.950;24.126;2023-01-15T16:26:21;4.60;99.90
65146;DHT22;51730;56.950;24.126;2023-01-15T16:28:55;4.60;99.90
65146;DHT22;51730;56.950;24.126;2023-01-15T16:31:23;4.70;99.90
65146;DHT22;51730;56.950;24.126;2023-01-15T16:33:55;4.60;99.90
65146;DHT22;51730;56.950;24.126;2023-01-15T16:36:25;4.70;99.90
65146;DHT22;51730;56.950;24.126;2023-01-15T16:38:53;4.70;99.90
65146;DHT22;51730;56.950;24.126;2023-01-15T16:41:25;4.80;99.90
65146;DHT22;51730;56.950;24.126;2023-01-15T16:44:00;4.70;99.90
65146;DHT22;51730;56.950;24.126;2023-01-15T16:46:31;4.70;99.90
65146;DHT22;51730;56.950;24.126;2023-01-15T16:49:22;4.80;99.90
65146;DHT22;51730;56.950;24.126;2023-01-15T16:51:54;4.80;99.90
65146;DHT22;51730;56.950;24.126;2023-01-15T16:57:22;4.80;99.90
65146;DHT22;51730;56.950;24.126;2023-01-15T16:59:54;4.80;99.90
65146;DHT22;51730;56.950;24.126;2023-01-15T17:02:22;4.80;99.90
65146;DHT22;51730;56.950;24.126;2023-01-15T17:04:49;4.80;99.90
65146;DHT22;51730;56.950;24.126;2023-01-15T17:07:30;4.80;99.90
65146;DHT22;51730;56.950;24.126;2023-01-15T17:09:59;4.80;99.90
65146;DHT22;51730;56.950;24.126;2023-01-15T17:12:33;4.80;99.90
65146;DHT22;51730;56.950;24.126;2023-01-15T17:17:45;4.80;99.90
65146;DHT22;51730;56.950;24.126;2023-01-15T17:20:13;4.90;99.90
65146;DHT22;51730;56.950;24.126;2023-01-15T17:22:44;4.90;99.90
65146;DHT22;51730;56.950;24.126;2023-01-15T17:25:33;4.90;99.90
65146;DHT22;51730;56.950;24.126;2023-01-15T17:28:02;4.90;99.90
65146;DHT22;51730;56.950;24.126;2023-01-15T17:30:30;5.00;99.90
65146;DHT22;51730;56.950;24.126;2023-01-15T17:32:59;5.00;99.90
65146;DHT22;51730;56.950;24.126;2023-01-15T17:35:34;5.00;99.90
65146;DHT22;51730;56.950;24.126;2023-01-15T17:38:02;5.00;99.90
65146;DHT22;51730;56.950;24.126;2023-01-15T17:40:29;5.00;99.90
65146;DHT22;51730;56.950;24.126;2023-01-15T17:42:58;5.10;99.90
65146;DHT22;51730;56.950;24.126;2023-01-15T17:45:28;5.10;99.90
65146;DHT22;51730;56.950;24.126;2023-01-15T17:47:55;5.10;99.90
65146;DHT22;51730;56.950;24.126;2023-01-15T17:50:23;5.10;99.90
65146;DHT22;51730;56.950;24.126;2023-01-15T17:52:51;5.20;99.90
65146;DHT22;51730;56.950;24.126;2023-01-15T17:55:20;5.10;99.90
65146;DHT22;51730;56.950;24.126;2023-01-15T17:58:07;5.20;99.90
65146;DHT22;51730;56.950;24.126;2023-01-15T18:00:55;5.20;99.90
65146;DHT22;51730;56.950;24.126;2023-01-15T18:03:47;5.20;99.90
65146;DHT22;51730;56.950;24.126;2023-01-15T18:06:33;5.20;99.90
65146;DHT22;51730;56.950;24.126;2023-01-15T18:09:03;5.20;99.90
65146;DHT22;51730;56.950;24.126;2023-01-15T18:11:31;5.30;99.90
65146;DHT22;51730;56.950;24.126;2023-01-15T18:13:58;5.20;99.90
65146;DHT22;51730;56.950;24.126;2023-01-15T18:16:25;5.20;99.90
65146;DHT22;51730;56.950;24.126;2023-01-15T18:18:53;5.30;99.90